sensor_id;sensor_type;location;lat;lon;timestamp;temperature;humidity
70830;SHT30;58451;51.550;7.208;2023-07-29T00:01:20;19.71;79.43
70830;SHT30;58451;51.550;7.208;2023-07-29T00:02:52;19.67;79.47
70830;SHT30;58451;51.550;7.208;2023-07-29T00:04:24;19.64;79.52
70830;SHT30;58451;51.550;7.208;2023-07-29T00:05:56;19.60;79.53
70830;SHT30;58451;51.550;7.208;2023-07-29T00:07:27;19.57;79.57
70830;SHT30;58451;51.550;7.208;2023-07-29T00:08:59;19.54;79.60
70830;SHT30;58451;51.550;7.208;2023-07-29T00:10:31;19.50;79.65
70830;SHT30;58451;51.550;7.208;2023-07-29T00:12:04;19.47;79.85
70830;SHT30;58451;51.550;7.208;2023-07-29T00:13:36;19.44;79.97
70830;SHT30;58451;51.550;7.208;2023-07-29T00:15:08;19.40;79.97
70830;SHT30;58451;51.550;7.208;2023-07-29T00:16:41;19.38;79.97
70830;SHT30;58451;51.550;7.208;2023-07-29T00:18:14;19.37;80.05
70830;SHT30;58451;51.550;7.208;2023-07-29T00:19:46;19.34;80.08
70830;SHT30;58451;51.550;7.208;2023-07-29T00:21:18;19.32;80.18
70830;SHT30;58451;51.550;7.208;2023-07-29T00:22:50;19.31;80.25
70830;SHT30;58451;51.550;7.208;2023-07-29T00:24:25;19.28;80.30
70830;SHT30;58451;51.550;7.208;2023-07-29T00:25:57;19.29;80.37
70830;SHT30;58451;51.550;7.208;2023-07-29T00:27:28;19.27;80.40
70830;SHT30;58451;51.550;7.208;2023-07-29T00:29:00;19.25;80.63
70830;SHT30;58451;51.550;7.208;2023-07-29T00:30:32;19.25;80.67
70830;SHT30;58451;51.550;7.208;2023-07-29T00:32:04;19.25;80.68
70830;SHT30;58451;51.550;7.208;2023-07-29T00:33:36;19.22;80.75
70830;SHT30;58451;51.550;7.208;2023-07-29T00:35:08;19.21;80.83
70830;SHT30;58451;51.550;7.208;2023-07-29T00:36:40;19.19;80.90
70830;SHT30;58451;51.550;7.208;2023-07-29T00:38:12;19.17;80.93
70830;SHT30;58451;51.550;7.208;2023-07-29T00:39:44;19.16;80.98
70830;SHT30;58451;51.550;7.208;2023-07-29T00:41:16;19.15;80.95
70830;SHT30;58451;51.550;7.208;2023-07-29T00:42:49;19.13;80.97
70830;SHT30;58451;51.550;7.208;2023-07-29T00:44:22;19.12;81.05
70830;SHT30;58451;51.550;7.208;2023-07-29T00:45:54;19.12;81.12
70830;SHT30;58451;51.550;7.208;2023-07-29T00:47:26;19.12;81.15
70830;SHT30;58451;51.550;7.208;2023-07-29T00:48:58;19.11;81.17
70830;SHT30;58451;51.550;7.208;2023-07-29T00:50:31;19.12;81.17
70830;SHT30;58451;51.550;7.208;2023-07-29T00:52:04;19.11;81.18
70830;SHT30;58451;51.550;7.208;2023-07-29T00:53:37;19.09;81.23
70830;SHT30;58451;51.550;7.208;2023-07-29T00:55:10;19.08;81.25
70830;SHT30;58451;51.550;7.208;2023-07-29T00:56:43;19.07;81.27
70830;SHT30;58451;51.550;7.208;2023-07-29T00:58:16;19.06;81.30
70830;SHT30;58451;51.550;7.208;2023-07-29T00:59:53;19.03;81.40
70830;SHT30;58451;51.550;7.208;2023-07-29T01:01:28;19.03;81.38
70830;SHT30;58451;51.550;7.208;2023-07-29T01:03:01;19.04;81.45
70830;SHT30;58451;51.550;7.208;2023-07-29T01:04:33;18.99;81.47
70830;SHT30;58451;51.550;7.208;2023-07-29T01:08:21;18.98;81.48
70830;SHT30;58451;51.550;7.208;2023-07-29T01:10:51;18.95;81.50
70830;SHT30;58451;51.550;7.208;2023-07-29T01:12:46;18.93;81.45
70830;SHT30;58451;51.550;7.208;2023-07-29T01:16:24;18.90;81.50
70830;SHT30;58451;51.550;7.208;2023-07-29T01:18:21;18.88;81.55
70830;SHT30;58451;51.550;7.208;2023-07-29T01:21:55;18.85;81.62
70830;SHT30;58451;51.550;7.208;2023-07-29T01:23:31;18.85;81.67
70830;SHT30;58451;51.550;7.208;2023-07-29T01:25:05;18.84;81.72
70830;SHT30;58451;51.550;7.208;2023-07-29T01:26:37;18.84;81.80
70830;SHT30;58451;51.550;7.208;2023-07-29T01:28:10;18.84;81.83
70830;SHT30;58451;51.550;7.208;2023-07-29T01:29:42;18.85;82.40
70830;SHT30;58451;51.550;7.208;2023-07-29T01:31:20;18.84;82.32
70830;SHT30;58451;51.550;7.208;2023-07-29T01:33:08;18.85;82.20
70830;SHT30;58451;51.550;7.208;2023-07-29T01:34:44;18.87;82.20
70830;SHT30;58451;51.550;7.208;2023-07-29T01:36:54;18.86;82.10
70830;SHT30;58451;51.550;7.208;2023-07-29T01:38:33;18.87;82.15
70830;SHT30;58451;51.550;7.208;2023-07-29T01:40:10;18.89;82.15
70830;SHT30;58451;51.550;7.208;2023-07-29T01:41:43;18.92;82.20
70830;SHT30;58451;51.550;7.208;2023-07-29T01:43:16;18.94;82.30
70830;SHT30;58451;51.550;7.208;2023-07-29T01:44:50;18.97;82.42
70830;SHT30;58451;51.550;7.208;2023-07-29T01:46:22;19.00;82.47
70830;SHT30;58451;51.550;7.208;2023-07-29T01:47:54;19.04;82.48
70830;SHT30;58451;51.550;7.208;2023-07-29T01:49:26;19.07;82.57
70830;SHT30;58451;51.550;7.208;2023-07-29T01:50:57;19.10;82.50
70830;SHT30;58451;51.550;7.208;2023-07-29T01:52:29;19.14;82.48
70830;SHT30;58451;51.550;7.208;2023-07-29T01:54:01;19.17;82.53
70830;SHT30;58451;51.550;7.208;2023-07-29T01:55:33;19.19;82.57
70830;SHT30;58451;51.550;7.208;2023-07-29T01:57:05;19.21;82.57
70830;SHT30;58451;51.550;7.208;2023-07-29T01:58:37;19.25;82.53
70830;SHT30;58451;51.550;7.208;2023-07-29T02:00:09;19.26;82.55
70830;SHT30;58451;51.550;7.208;2023-07-29T02:01:48;19.27;82.55
70830;SHT30;58451;51.550;7.208;2023-07-29T02:03:20;19.29;82.55
70830;SHT30;58451;51.550;7.208;2023-07-29T02:04:52;19.31;82.53
70830;SHT30;58451;51.550;7.208;2023-07-29T02:06:24;19.33;82.57
70830;SHT30;58451;51.550;7.208;2023-07-29T02:07:56;19.34;82.60
70830;SHT30;58451;51.550;7.208;2023-07-29T02:09:28;19.36;82.52
70830;SHT30;58451;51.550;7.208;2023-07-29T02:11:02;19.38;82.58
70830;SHT30;58451;51.550;7.208;2023-07-29T02:12:34;19.39;82.53
70830;SHT30;58451;51.550;7.208;2023-07-29T02:14:06;19.41;82.57
70830;SHT30;58451;51.550;7.208;2023-07-29T02:15:38;19.42;82.48
70830;SHT30;58451;51.550;7.208;2023-07-29T02:17:10;19.44;82.48
70830;SHT30;58451;51.550;7.208;2023-07-29T02:18:42;19.44;82.52
70830;SHT30;58451;51.550;7.208;2023-07-29T02:20:14;19.46;82.68
70830;SHT30;58451;51.550;7.208;2023-07-29T02:21:46;19.46;82.63
70830;SHT30;58451;51.550;7.208;2023-07-29T02:23:18;19.48;82.60
70830;SHT30;58451;51.550;7.208;2023-07-29T02:24:50;19.49;82.55
70830;SHT30;58451;51.550;7.208;2023-07-29T02:26:22;19.51;82.47
70830;SHT30;58451;51.550;7.208;2023-07-29T02:27:54;19.50;82.43
70830;SHT30;58451;51.550;7.208;2023-07-29T02:29:26;19.50;82.42
70830;SHT30;58451;51.550;7.208;2023-07-29T02:31:17;19.52;82.35
70830;SHT30;58451;51.550;7.208;2023-07-29T02:32:54;19.51;82.30
70830;SHT30;58451;51.550;7.208;2023-07-29T02:34:26;19.51;82.32
70830;SHT30;58451;51.550;7.208;2023-07-29T02:35:58;19.50;82.28
70830;SHT30;58451;51.550;7.208;2023-07-29T02:37:30;19.50;82.25
70830;SHT30;58451;51.550;7.208;2023-07-29T02:39:02;19.50;82.25
70830;SHT30;58451;51.550;7.208;2023-07-29T02:40:34;19.50;82.25
70830;SHT30;58451;51.550;7.208;2023-07-29T02:42:06;19.50;82.25
70830;SHT30;58451;51.550;7.208;2023-07-29T02:43:38;19.49;82.27
70830;SHT30;58451;51.550;7.208;2023-07-29T02:45:13;19.50;82.23
70830;SHT30;58451;51.550;7.208;2023-07-29T02:46:44;19.50;82.25
70830;SHT30;58451;51.550;7.208;2023-07-29T02:48:16;19.47;82.30
70830;SHT30;58451;51.550;7.208;2023-07-29T02:49:48;19.48;82.38
70830;SHT30;58451;51.550;7.208;2023-07-29T02:51:20;19.47;82.37
70830;SHT30;58451;51.550;7.208;2023-07-29T02:52:52;19.47;82.32
70830;SHT30;58451;51.550;7.208;2023-07-29T02:54:24;19.49;82.27
70830;SHT30;58451;51.550;7.208;2023-07-29T02:55:55;19.48;82.30
70830;SHT30;58451;51.550;7.208;2023-07-29T02:57:27;19.48;82.72
70830;SHT30;58451;51.550;7.208;2023-07-29T02:58:59;19.48;82.53
70830;SHT30;58451;51.550;7.208;2023-07-29T03:00:33;19.49;82.68
70830;SHT30;58451;51.550;7.208;2023-07-29T03:02:06;19.48;82.52
70830;SHT30;58451;51.550;7.208;2023-07-29T03:03:38;19.50;82.47
70830;SHT30;58451;51.550;7.208;2023-07-29T03:05:11;19.50;82.60
70830;SHT30;58451;51.550;7.208;2023-07-29T03:06:43;19.51;82.52
70830;SHT30;58451;51.550;7.208;2023-07-29T03:08:15;19.52;82.42
70830;SHT30;58451;51.550;7.208;2023-07-29T03:09:47;19.53;82.33
70830;SHT30;58451;51.550;7.208;2023-07-29T03:11:18;19.55;82.32
70830;SHT30;58451;51.550;7.208;2023-07-29T03:12:50;19.56;82.30
70830;SHT30;58451;51.550;7.208;2023-07-29T03:14:27;19.56;82.27
70830;SHT30;58451;51.550;7.208;2023-07-29T03:16:06;19.58;82.30
70830;SHT30;58451;51.550;7.208;2023-07-29T03:17:58;19.57;82.23
70830;SHT30;58451;51.550;7.208;2023-07-29T03:19:30;19.58;82.27
70830;SHT30;58451;51.550;7.208;2023-07-29T03:21:02;19.59;82.32
70830;SHT30;58451;51.550;7.208;2023-07-29T03:22:34;19.59;82.35
70830;SHT30;58451;51.550;7.208;2023-07-29T03:24:06;19.61;82.32
70830;SHT30;58451;51.550;7.208;2023-07-29T03:25:38;19.61;82.57
70830;SHT30;58451;51.550;7.208;2023-07-29T03:27:10;19.61;82.83
70830;SHT30;58451;51.550;7.208;2023-07-29T03:28:42;19.60;82.73
70830;SHT30;58451;51.550;7.208;2023-07-29T03:30:15;19.62;82.53
70830;SHT30;58451;51.550;7.208;2023-07-29T03:31:50;19.62;82.42
70830;SHT30;58451;51.550;7.208;2023-07-29T03:33:22;19.63;82.40
70830;SHT30;58451;51.550;7.208;2023-07-29T03:34:54;19.63;82.32
70830;SHT30;58451;51.550;7.208;2023-07-29T03:36:26;19.63;82.32
70830;SHT30;58451;51.550;7.208;2023-07-29T03:37:58;19.63;82.27
70830;SHT30;58451;51.550;7.208;2023-07-29T03:39:30;19.64;82.23
70830;SHT30;58451;51.550;7.208;2023-07-29T03:41:01;19.63;82.23
70830;SHT30;58451;51.550;7.208;2023-07-29T03:42:35;19.63;82.22
70830;SHT30;58451;51.550;7.208;2023-07-29T03:44:07;19.63;82.18
70830;SHT30;58451;51.550;7.208;2023-07-29T03:45:40;19.63;82.22
70830;SHT30;58451;51.550;7.208;2023-07-29T03:47:12;19.62;82.15
70830;SHT30;58451;51.550;7.208;2023-07-29T03:48:45;19.61;82.13
70830;SHT30;58451;51.550;7.208;2023-07-29T03:50:17;19.61;82.13
70830;SHT30;58451;51.550;7.208;2023-07-29T03:51:48;19.60;82.27
70830;SHT30;58451;51.550;7.208;2023-07-29T03:53:20;19.60;82.23
70830;SHT30;58451;51.550;7.208;2023-07-29T03:54:52;19.59;82.18
70830;SHT30;58451;51.550;7.208;2023-07-29T03:56:24;19.59;82.18
70830;SHT30;58451;51.550;7.208;2023-07-29T03:57:56;19.60;82.53
70830;SHT30;58451;51.550;7.208;2023-07-29T03:59:29;19.60;82.43
70830;SHT30;58451;51.550;7.208;2023-07-29T04:01:01;19.61;82.38
70830;SHT30;58451;51.550;7.208;2023-07-29T04:02:33;19.61;82.32
70830;SHT30;58451;51.550;7.208;2023-07-29T04:04:05;19.60;82.25
70830;SHT30;58451;51.550;7.208;2023-07-29T04:05:37;19.61;82.25
70830;SHT30;58451;51.550;7.208;2023-07-29T04:07:09;19.60;82.25
70830;SHT30;58451;51.550;7.208;2023-07-29T04:08:41;19.60;82.22
70830;SHT30;58451;51.550;7.208;2023-07-29T04:10:13;19.60;82.22
70830;SHT30;58451;51.550;7.208;2023-07-29T04:11:45;19.61;82.22
70830;SHT30;58451;51.550;7.208;2023-07-29T04:13:17;19.63;82.20
70830;SHT30;58451;51.550;7.208;2023-07-29T04:14:49;19.63;82.23
70830;SHT30;58451;51.550;7.208;2023-07-29T04:16:21;19.62;82.20
70830;SHT30;58451;51.550;7.208;2023-07-29T04:17:53;19.63;82.17
70830;SHT30;58451;51.550;7.208;2023-07-29T04:19:25;19.64;82.20
70830;SHT30;58451;51.550;7.208;2023-07-29T04:20:57;19.65;82.32
70830;SHT30;58451;51.550;7.208;2023-07-29T04:22:29;19.65;82.22
70830;SHT30;58451;51.550;7.208;2023-07-29T04:24:01;19.67;82.23
70830;SHT30;58451;51.550;7.208;2023-07-29T04:25:33;19.66;82.20
70830;SHT30;58451;51.550;7.208;2023-07-29T04:27:04;19.67;82.22
70830;SHT30;58451;51.550;7.208;2023-07-29T04:28:36;19.67;82.20
70830;SHT30;58451;51.550;7.208;2023-07-29T04:30:08;19.67;82.17
70830;SHT30;58451;51.550;7.208;2023-07-29T04:31:41;19.69;82.17
70830;SHT30;58451;51.550;7.208;2023-07-29T04:33:14;19.69;82.15
70830;SHT30;58451;51.550;7.208;2023-07-29T04:34:46;19.71;82.13
70830;SHT30;58451;51.550;7.208;2023-07-29T04:36:18;19.73;82.13
70830;SHT30;58451;51.550;7.208;2023-07-29T04:37:50;19.76;82.10
70830;SHT30;58451;51.550;7.208;2023-07-29T04:39:21;19.78;82.08
70830;SHT30;58451;51.550;7.208;2023-07-29T04:40:53;19.81;82.08
70830;SHT30;58451;51.550;7.208;2023-07-29T04:42:25;19.83;82.03
70830;SHT30;58451;51.550;7.208;2023-07-29T04:43:57;19.84;82.03
70830;SHT30;58451;51.550;7.208;2023-07-29T04:45:29;19.85;82.03
70830;SHT30;58451;51.550;7.208;2023-07-29T04:47:02;19.87;82.05
70830;SHT30;58451;51.550;7.208;2023-07-29T04:48:34;19.89;82.17
70830;SHT30;58451;51.550;7.208;2023-07-29T04:50:06;19.88;82.18
70830;SHT30;58451;51.550;7.208;2023-07-29T04:51:41;19.90;82.12
70830;SHT30;58451;51.550;7.208;2023-07-29T04:53:13;19.90;82.22
70830;SHT30;58451;51.550;7.208;2023-07-29T04:54:44;19.91;82.23
70830;SHT30;58451;51.550;7.208;2023-07-29T04:56:16;19.92;82.15
70830;SHT30;58451;51.550;7.208;2023-07-29T04:57:49;19.94;82.13
70830;SHT30;58451;51.550;7.208;2023-07-29T04:59:21;19.95;82.08
70830;SHT30;58451;51.550;7.208;2023-07-29T05:00:53;19.95;82.08
70830;SHT30;58451;51.550;7.208;2023-07-29T05:02:24;19.96;82.12
70830;SHT30;58451;51.550;7.208;2023-07-29T05:03:57;19.95;82.00
70830;SHT30;58451;51.550;7.208;2023-07-29T05:05:29;19.94;81.90
70830;SHT30;58451;51.550;7.208;2023-07-29T05:07:01;19.94;81.87
70830;SHT30;58451;51.550;7.208;2023-07-29T05:08:34;19.92;81.87
70830;SHT30;58451;51.550;7.208;2023-07-29T05:10:07;19.91;81.93
70830;SHT30;58451;51.550;7.208;2023-07-29T05:11:39;19.89;81.92
70830;SHT30;58451;51.550;7.208;2023-07-29T05:13:11;19.86;81.87
70830;SHT30;58451;51.550;7.208;2023-07-29T05:14:43;19.85;81.85
70830;SHT30;58451;51.550;7.208;2023-07-29T05:16:15;19.84;81.87
70830;SHT30;58451;51.550;7.208;2023-07-29T05:17:47;19.85;81.83
70830;SHT30;58451;51.550;7.208;2023-07-29T05:19:19;19.86;81.63
70830;SHT30;58451;51.550;7.208;2023-07-29T05:20:51;19.89;81.52
70830;SHT30;58451;51.550;7.208;2023-07-29T05:22:23;19.92;81.42
70830;SHT30;58451;51.550;7.208;2023-07-29T05:23:54;19.92;81.18
70830;SHT30;58451;51.550;7.208;2023-07-29T05:25:27;19.97;81.07
70830;SHT30;58451;51.550;7.208;2023-07-29T05:27:00;20.01;80.97
70830;SHT30;58451;51.550;7.208;2023-07-29T05:28:32;20.07;80.75
70830;SHT30;58451;51.550;7.208;2023-07-29T05:30:04;20.12;80.80
70830;SHT30;58451;51.550;7.208;2023-07-29T05:31:38;20.18;80.67
70830;SHT30;58451;51.550;7.208;2023-07-29T05:33:10;20.21;80.57
70830;SHT30;58451;51.550;7.208;2023-07-29T05:34:43;20.28;80.52
70830;SHT30;58451;51.550;7.208;2023-07-29T05:36:15;20.32;80.20
70830;SHT30;58451;51.550;7.208;2023-07-29T05:37:47;20.34;80.17
70830;SHT30;58451;51.550;7.208;2023-07-29T05:39:19;20.38;80.20
70830;SHT30;58451;51.550;7.208;2023-07-29T05:40:50;20.42;80.17
70830;SHT30;58451;51.550;7.208;2023-07-29T05:42:22;20.42;79.98
70830;SHT30;58451;51.550;7.208;2023-07-29T05:43:54;20.44;80.02
70830;SHT30;58451;51.550;7.208;2023-07-29T05:45:26;20.43;79.87
70830;SHT30;58451;51.550;7.208;2023-07-29T05:46:58;20.43;79.88
70830;SHT30;58451;51.550;7.208;2023-07-29T05:48:30;20.42;79.85
70830;SHT30;58451;51.550;7.208;2023-07-29T05:50:02;20.42;79.85
70830;SHT30;58451;51.550;7.208;2023-07-29T05:51:36;20.44;79.78
70830;SHT30;58451;51.550;7.208;2023-07-29T05:53:07;20.44;79.73
70830;SHT30;58451;51.550;7.208;2023-07-29T05:54:39;20.45;79.65
70830;SHT30;58451;51.550;7.208;2023-07-29T05:56:12;20.44;79.58
70830;SHT30;58451;51.550;7.208;2023-07-29T05:57:44;20.43;79.45
70830;SHT30;58451;51.550;7.208;2023-07-29T05:59:16;20.40;79.17
70830;SHT30;58451;51.550;7.208;2023-07-29T06:00:48;20.40;79.17
70830;SHT30;58451;51.550;7.208;2023-07-29T06:02:22;20.40;79.15
70830;SHT30;58451;51.550;7.208;2023-07-29T06:03:54;20.36;78.82
70830;SHT30;58451;51.550;7.208;2023-07-29T06:05:27;20.32;78.72
70830;SHT30;58451;51.550;7.208;2023-07-29T06:06:59;20.30;78.77
70830;SHT30;58451;51.550;7.208;2023-07-29T06:08:31;20.28;78.80
70830;SHT30;58451;51.550;7.208;2023-07-29T06:10:05;20.31;78.90
70830;SHT30;58451;51.550;7.208;2023-07-29T06:11:39;20.34;78.58
70830;SHT30;58451;51.550;7.208;2023-07-29T06:13:11;20.35;78.35
70830;SHT30;58451;51.550;7.208;2023-07-29T06:14:42;20.35;78.10
70830;SHT30;58451;51.550;7.208;2023-07-29T06:16:14;20.37;77.82
70830;SHT30;58451;51.550;7.208;2023-07-29T06:17:46;20.35;76.97
70830;SHT30;58451;51.550;7.208;2023-07-29T06:19:19;20.35;77.08
70830;SHT30;58451;51.550;7.208;2023-07-29T06:20:52;20.36;77.32
70830;SHT30;58451;51.550;7.208;2023-07-29T06:22:24;20.39;77.32
70830;SHT30;58451;51.550;7.208;2023-07-29T06:23:56;20.41;77.15
70830;SHT30;58451;51.550;7.208;2023-07-29T06:25:28;20.43;77.08
70830;SHT30;58451;51.550;7.208;2023-07-29T06:27:00;20.43;76.60
70830;SHT30;58451;51.550;7.208;2023-07-29T06:28:32;20.41;76.28
70830;SHT30;58451;51.550;7.208;2023-07-29T06:30:04;20.44;76.25
70830;SHT30;58451;51.550;7.208;2023-07-29T06:31:37;20.47;75.62
70830;SHT30;58451;51.550;7.208;2023-07-29T06:33:09;20.48;75.28
70830;SHT30;58451;51.550;7.208;2023-07-29T06:34:41;20.51;75.60
70830;SHT30;58451;51.550;7.208;2023-07-29T06:36:12;20.58;75.20
70830;SHT30;58451;51.550;7.208;2023-07-29T06:37:45;20.64;74.98
70830;SHT30;58451;51.550;7.208;2023-07-29T06:39:16;20.69;74.97
70830;SHT30;58451;51.550;7.208;2023-07-29T06:40:48;20.69;74.41
70830;SHT30;58451;51.550;7.208;2023-07-29T06:42:20;20.74;74.60
70830;SHT30;58451;51.550;7.208;2023-07-29T06:43:52;20.78;74.83
70830;SHT30;58451;51.550;7.208;2023-07-29T06:45:24;20.83;75.03
70830;SHT30;58451;51.550;7.208;2023-07-29T06:46:57;20.88;74.80
70830;SHT30;58451;51.550;7.208;2023-07-29T06:48:29;20.92;74.40
70830;SHT30;58451;51.550;7.208;2023-07-29T06:50:01;20.93;73.75
70830;SHT30;58451;51.550;7.208;2023-07-29T06:51:33;20.96;73.98
70830;SHT30;58451;51.550;7.208;2023-07-29T06:53:06;20.97;73.65
70830;SHT30;58451;51.550;7.208;2023-07-29T06:54:38;20.94;72.77
70830;SHT30;58451;51.550;7.208;2023-07-29T06:56:10;20.93;72.53
70830;SHT30;58451;51.550;7.208;2023-07-29T06:57:42;20.94;72.70
70830;SHT30;58451;51.550;7.208;2023-07-29T06:59:13;20.95;72.28
70830;SHT30;58451;51.550;7.208;2023-07-29T07:00:45;20.96;72.12
70830;SHT30;58451;51.550;7.208;2023-07-29T07:02:17;20.96;72.07
70830;SHT30;58451;51.550;7.208;2023-07-29T07:03:49;20.94;71.28
70830;SHT30;58451;51.550;7.208;2023-07-29T07:05:21;20.94;70.92
70830;SHT30;58451;51.550;7.208;2023-07-29T07:06:53;20.91;70.35
70830;SHT30;58451;51.550;7.208;2023-07-29T07:08:24;20.88;70.63
70830;SHT30;58451;51.550;7.208;2023-07-29T07:09:56;20.86;70.52
70830;SHT30;58451;51.550;7.208;2023-07-29T07:11:31;20.83;70.63
70830;SHT30;58451;51.550;7.208;2023-07-29T07:13:03;20.86;70.83
70830;SHT30;58451;51.550;7.208;2023-07-29T07:14:36;20.86;71.00
70830;SHT30;58451;51.550;7.208;2023-07-29T07:16:08;20.90;70.93
70830;SHT30;58451;51.550;7.208;2023-07-29T07:17:40;20.94;70.75
70830;SHT30;58451;51.550;7.208;2023-07-29T07:19:13;21.01;70.92
70830;SHT30;58451;51.550;7.208;2023-07-29T07:20:47;21.04;70.40
70830;SHT30;58451;51.550;7.208;2023-07-29T07:22:21;21.03;70.30
70830;SHT30;58451;51.550;7.208;2023-07-29T07:23:52;21.02;70.30
70830;SHT30;58451;51.550;7.208;2023-07-29T07:25:24;20.95;69.23
70830;SHT30;58451;51.550;7.208;2023-07-29T07:26:56;20.90;69.73
70830;SHT30;58451;51.550;7.208;2023-07-29T07:28:28;20.93;69.30
70830;SHT30;58451;51.550;7.208;2023-07-29T07:30:00;21.00;69.85
70830;SHT30;58451;51.550;7.208;2023-07-29T07:31:33;21.05;69.27
70830;SHT30;58451;51.550;7.208;2023-07-29T07:33:06;21.15;69.10
70830;SHT30;58451;51.550;7.208;2023-07-29T07:34:38;21.20;68.40
70830;SHT30;58451;51.550;7.208;2023-07-29T07:36:10;21.32;68.32
70830;SHT30;58451;51.550;7.208;2023-07-29T07:37:42;21.44;67.88
70830;SHT30;58451;51.550;7.208;2023-07-29T07:39:13;21.59;68.08
70830;SHT30;58451;51.550;7.208;2023-07-29T07:40:55;21.75;67.62
70830;SHT30;58451;51.550;7.208;2023-07-29T07:42:30;21.88;66.67
70830;SHT30;58451;51.550;7.208;2023-07-29T07:44:02;21.97;66.47
70830;SHT30;58451;51.550;7.208;2023-07-29T07:45:33;22.04;66.60
70830;SHT30;58451;51.550;7.208;2023-07-29T07:47:05;21.99;64.98
70830;SHT30;58451;51.550;7.208;2023-07-29T07:48:37;22.00;65.63
70830;SHT30;58451;51.550;7.208;2023-07-29T07:50:09;22.01;65.33
70830;SHT30;58451;51.550;7.208;2023-07-29T07:51:43;22.04;65.73
70830;SHT30;58451;51.550;7.208;2023-07-29T07:53:15;22.11;65.23
70830;SHT30;58451;51.550;7.208;2023-07-29T07:54:51;22.13;65.13
70830;SHT30;58451;51.550;7.208;2023-07-29T07:56:25;22.19;65.10
70830;SHT30;58451;51.550;7.208;2023-07-29T07:57:56;22.29;65.47
70830;SHT30;58451;51.550;7.208;2023-07-29T07:59:28;22.38;64.95
70830;SHT30;58451;51.550;7.208;2023-07-29T08:01:03;22.45;64.63
70830;SHT30;58451;51.550;7.208;2023-07-29T08:02:37;22.55;64.13
70830;SHT30;58451;51.550;7.208;2023-07-29T08:04:09;22.57;64.55
70830;SHT30;58451;51.550;7.208;2023-07-29T08:05:41;22.58;64.80
70830;SHT30;58451;51.550;7.208;2023-07-29T08:07:13;22.63;64.80
70830;SHT30;58451;51.550;7.208;2023-07-29T08:08:45;22.66;63.55
70830;SHT30;58451;51.550;7.208;2023-07-29T08:10:17;22.66;63.98
70830;SHT30;58451;51.550;7.208;2023-07-29T08:11:49;22.60;63.43
70830;SHT30;58451;51.550;7.208;2023-07-29T08:13:21;22.52;63.48
70830;SHT30;58451;51.550;7.208;2023-07-29T08:14:54;22.44;63.45
70830;SHT30;58451;51.550;7.208;2023-07-29T08:16:25;22.37;63.07
70830;SHT30;58451;51.550;7.208;2023-07-29T08:17:57;22.32;63.37
70830;SHT30;58451;51.550;7.208;2023-07-29T08:19:29;22.34;63.77
70830;SHT30;58451;51.550;7.208;2023-07-29T08:21:01;22.40;63.48
70830;SHT30;58451;51.550;7.208;2023-07-29T08:22:36;22.49;63.18
70830;SHT30;58451;51.550;7.208;2023-07-29T08:24:08;22.47;62.58
70830;SHT30;58451;51.550;7.208;2023-07-29T08:25:40;22.57;62.68
70830;SHT30;58451;51.550;7.208;2023-07-29T08:27:12;22.72;62.83
70830;SHT30;58451;51.550;7.208;2023-07-29T08:28:44;22.78;62.10
70830;SHT30;58451;51.550;7.208;2023-07-29T08:30:16;22.89;61.90
70830;SHT30;58451;51.550;7.208;2023-07-29T08:31:48;22.88;61.27
70830;SHT30;58451;51.550;7.208;2023-07-29T08:33:23;22.86;61.57
70830;SHT30;58451;51.550;7.208;2023-07-29T08:34:55;22.80;60.63
70830;SHT30;58451;51.550;7.208;2023-07-29T08:36:27;22.69;60.48
70830;SHT30;58451;51.550;7.208;2023-07-29T08:37:59;22.73;61.28
70830;SHT30;58451;51.550;7.208;2023-07-29T08:39:31;22.77;60.17
70830;SHT30;58451;51.550;7.208;2023-07-29T08:41:06;22.80;60.75
70830;SHT30;58451;51.550;7.208;2023-07-29T08:42:56;22.83;60.13
70830;SHT30;58451;51.550;7.208;2023-07-29T08:44:34;22.89;59.87
70830;SHT30;58451;51.550;7.208;2023-07-29T08:46:12;22.92;59.43
70830;SHT30;58451;51.550;7.208;2023-07-29T08:47:45;22.92;59.82
70830;SHT30;58451;51.550;7.208;2023-07-29T08:49:19;22.99;59.80
70830;SHT30;58451;51.550;7.208;2023-07-29T08:50:54;23.07;59.73
70830;SHT30;58451;51.550;7.208;2023-07-29T08:52:27;23.10;58.90
70830;SHT30;58451;51.550;7.208;2023-07-29T08:54:03;23.09;58.78
70830;SHT30;58451;51.550;7.208;2023-07-29T08:55:36;23.10;58.88
70830;SHT30;58451;51.550;7.208;2023-07-29T08:57:10;23.09;59.22
70830;SHT30;58451;51.550;7.208;2023-07-29T08:58:42;23.08;59.78
70830;SHT30;58451;51.550;7.208;2023-07-29T09:00:15;23.06;59.63
70830;SHT30;58451;51.550;7.208;2023-07-29T09:01:52;23.09;59.28
70830;SHT30;58451;51.550;7.208;2023-07-29T09:03:28;23.03;58.95
70830;SHT30;58451;51.550;7.208;2023-07-29T09:05:01;22.93;59.10
70830;SHT30;58451;51.550;7.208;2023-07-29T09:06:33;22.90;59.23
70830;SHT30;58451;51.550;7.208;2023-07-29T09:08:08;22.92;58.90
70830;SHT30;58451;51.550;7.208;2023-07-29T09:09:41;22.97;59.07
70830;SHT30;58451;51.550;7.208;2023-07-29T09:11:13;23.08;59.07
70830;SHT30;58451;51.550;7.208;2023-07-29T09:12:48;23.22;59.42
70830;SHT30;58451;51.550;7.208;2023-07-29T09:14:20;23.37;59.62
70830;SHT30;58451;51.550;7.208;2023-07-29T09:15:57;23.42;58.48
70830;SHT30;58451;51.550;7.208;2023-07-29T09:17:32;23.49;58.55
70830;SHT30;58451;51.550;7.208;2023-07-29T09:19:05;23.51;57.62
70830;SHT30;58451;51.550;7.208;2023-07-29T09:20:37;23.58;57.77
70830;SHT30;58451;51.550;7.208;2023-07-29T09:22:17;23.69;57.93
70830;SHT30;58451;51.550;7.208;2023-07-29T09:23:52;23.91;57.02
70830;SHT30;58451;51.550;7.208;2023-07-29T09:25:25;24.04;56.33
70830;SHT30;58451;51.550;7.208;2023-07-29T09:26:59;24.16;56.02
70830;SHT30;58451;51.550;7.208;2023-07-29T09:28:34;24.25;55.72
70830;SHT30;58451;51.550;7.208;2023-07-29T09:30:15;24.38;55.62
70830;SHT30;58451;51.550;7.208;2023-07-29T09:31:48;24.48;55.50
70830;SHT30;58451;51.550;7.208;2023-07-29T09:33:20;24.56;55.08
70830;SHT30;58451;51.550;7.208;2023-07-29T09:34:51;24.68;55.10
70830;SHT30;58451;51.550;7.208;2023-07-29T09:36:23;24.83;55.03
70830;SHT30;58451;51.550;7.208;2023-07-29T09:37:55;24.97;54.80
70830;SHT30;58451;51.550;7.208;2023-07-29T09:39:28;25.08;54.83
70830;SHT30;58451;51.550;7.208;2023-07-29T09:41:00;25.13;54.32
70830;SHT30;58451;51.550;7.208;2023-07-29T09:42:32;25.15;53.63
70830;SHT30;58451;51.550;7.208;2023-07-29T09:44:04;25.24;53.45
70830;SHT30;58451;51.550;7.208;2023-07-29T09:45:39;25.26;52.98
70830;SHT30;58451;51.550;7.208;2023-07-29T09:47:18;25.43;53.08
70830;SHT30;58451;51.550;7.208;2023-07-29T09:48:55;25.63;53.22
70830;SHT30;58451;51.550;7.208;2023-07-29T09:50:28;25.67;52.25
70830;SHT30;58451;51.550;7.208;2023-07-29T09:52:00;25.71;52.90
70830;SHT30;58451;51.550;7.208;2023-07-29T09:53:38;25.69;52.72
70830;SHT30;58451;51.550;7.208;2023-07-29T09:55:22;25.60;52.23